sensor_id;sensor_type;location;lat;lon;timestamp;temperature;humidity
6865;DHT22;3471;49.678;8.388;2023-02-26T00:00:57;2.40;99.90
6865;DHT22;3471;49.678;8.388;2023-02-26T00:03:23;2.40;99.90
6865;DHT22;3471;49.678;8.388;2023-02-26T00:05:48;2.40;99.90
6865;DHT22;3471;49.678;8.388;2023-02-26T00:08:15;2.40;99.90
6865;DHT22;3471;49.678;8.388;2023-02-26T00:10:40;2.40;99.90
6865;DHT22;3471;49.678;8.388;2023-02-26T00:13:07;2.40;99.90
6865;DHT22;3471;49.678;8.388;2023-02-26T00:15:33;2.40;99.90
6865;DHT22;3471;49.678;8.388;2023-02-26T00:18:06;2.50;99.90
6865;DHT22;3471;49.678;8.388;2023-02-26T00:20:32;2.50;99.90
6865;DHT22;3471;49.678;8.388;2023-02-26T00:22:58;2.50;99.90
6865;DHT22;3471;49.678;8.388;2023-02-26T00:25:24;2.60;99.90
6865;DHT22;3471;49.678;8.388;2023-02-26T00:27:49;2.60;99.90
6865;DHT22;3471;49.678;8.388;2023-02-26T00:30:15;2.60;99.90
6865;DHT22;3471;49.678;8.388;2023-02-26T00:32:41;2.60;99.90
6865;DHT22;3471;49.678;8.388;2023-02-26T00:35:12;2.60;99.90
6865;DHT22;3471;49.678;8.388;2023-02-26T00:42:43;2.60;99.90
6865;DHT22;3471;49.678;8.388;2023-02-26T00:45:10;2.60;99.90
6865;DHT22;3471;49.678;8.388;2023-02-26T00:47:58;2.60;99.90
6865;DHT22;3471;49.678;8.388;2023-02-26T00:50:27;2.60;99.90
6865;DHT22;3471;49.678;8.388;2023-02-26T00:53:16;2.50;99.90
6865;DHT22;3471;49.678;8.388;2023-02-26T00:55:45;2.50;99.90
6865;DHT22;3471;49.678;8.388;2023-02-26T00:58:10;2.50;99.90
6865;DHT22;3471;49.678;8.388;2023-02-26T01:00:36;2.50;99.90
6865;DHT22;3471;49.678;8.388;2023-02-26T01:03:02;2.40;99.90
6865;DHT22;3471;49.678;8.388;2023-02-26T01:05:28;2.40;99.90
6865;DHT22;3471;49.678;8.388;2023-02-26T01:10:29;2.30;99.90
6865;DHT22;3471;49.678;8.388;2023-02-26T01:12:55;2.40;99.90
6865;DHT22;3471;49.678;8.388;2023-02-26T01:15:25;2.40;99.90
6865;DHT22;3471;49.678;8.388;2023-02-26T01:18:25;2.30;99.90
6865;DHT22;3471;49.678;8.388;2023-02-26T01:21:02;2.30;99.90
6865;DHT22;3471;49.678;8.388;2023-02-26T01:23:31;2.30;99.90
6865;DHT22;3471;49.678;8.388;2023-02-26T01:26:18;2.30;99.90
6865;DHT22;3471;49.678;8.388;2023-02-26T01:28:46;2.40;99.90
6865;DHT22;3471;49.678;8.388;2023-02-26T01:34:06;2.40;99.90
6865;DHT22;3471;49.678;8.388;2023-02-26T01:36:39;2.50;99.90
6865;DHT22;3471;49.678;8.388;2023-02-26T01:39:18;2.50;99.90
6865;DHT22;3471;49.678;8.388;2023-02-26T01:41:53;2.50;99.90
6865;DHT22;3471;49.678;8.388;2023-02-26T01:44:26;2.50;99.90
6865;DHT22;3471;49.678;8.388;2023-02-26T01:47:17;2.50;99.90
6865;DHT22;3471;49.678;8.388;2023-02-26T01:49:44;2.60;99.90
6865;DHT22;3471;49.678;8.388;2023-02-26T01:55:22;2.70;99.90
6865;DHT22;3471;49.678;8.388;2023-02-26T01:57:51;2.70;99.90
6865;DHT22;3471;49.678;8.388;2023-02-26T02:00:18;2.70;99.90
6865;DHT22;3471;49.678;8.388;2023-02-26T02:02:44;2.70;99.90
6865;DHT22;3471;49.678;8.388;2023-02-26T02:05:31;2.70;99.90
6865;DHT22;3471;49.678;8.388;2023-02-26T02:07:59;2.70;99.90
6865;DHT22;3471;49.678;8.388;2023-02-26T02:10:27;2.70;99.90
6865;DHT22;3471;49.678;8.388;2023-02-26T02:13:01;2.60;99.90
6865;DHT22;3471;49.678;8.388;2023-02-26T02:15:43;2.60;99.90
6865;DHT22;3471;49.678;8.388;2023-02-26T02:24:15;2.70;99.90
6865;DHT22;3471;49.678;8.388;2023-02-26T02:26:49;2.70;99.90
6865;DHT22;3471;49.678;8.388;2023-02-26T02:31:57;2.60;99.90
6865;DHT22;3471;49.678;8.388;2023-02-26T02:34:32;2.60;99.90
6865;DHT22;3471;49.678;8.388;2023-02-26T02:37:04;2.60;99.90
6865;DHT22;3471;49.678;8.388;2023-02-26T02:39:35;2.60;99.90
6865;DHT22;3471;49.678;8.388;2023-02-26T02:42:07;2.60;99.90
6865;DHT22;3471;49.678;8.388;2023-02-26T02:44:38;2.70;99.90
6865;DHT22;3471;49.678;8.388;2023-02-26T02:47:07;2.70;99.90
6865;DHT22;3471;49.678;8.388;2023-02-26T02:55:13;2.60;99.90
6865;DHT22;3471;49.678;8.388;2023-02-26T02:57:47;2.50;99.90
6865;DHT22;3471;49.678;8.388;2023-02-26T03:00:15;2.50;99.90
6865;DHT22;3471;49.678;8.388;2023-02-26T03:02:50;2.50;99.90
6865;DHT22;3471;49.678;8.388;2023-02-26T03:05:17;2.50;99.90
6865;DHT22;3471;49.678;8.388;2023-02-26T03:07:56;2.40;99.90
6865;DHT22;3471;49.678;8.388;2023-02-26T03:10:23;2.40;99.90
6865;DHT22;3471;49.678;8.388;2023-02-26T03:12:48;2.40;99.90
6865;DHT22;3471;49.678;8.388;2023-02-26T03:15:20;2.30;99.90
6865;DHT22;3471;49.678;8.388;2023-02-26T03:18:14;2.30;99.90
6865;DHT22;3471;49.678;8.388;2023-02-26T03:23:27;2.20;99.90
6865;DHT22;3471;49.678;8.388;2023-02-26T03:26:14;2.20;99.90
6865;DHT22;3471;49.678;8.388;2023-02-26T03:29:07;2.20;99.90
6865;DHT22;3471;49.678;8.388;2023-02-26T03:32:02;2.10;99.90
6865;DHT22;3471;49.678;8.388;2023-02-26T03:34:40;2.10;99.90
6865;DHT22;3471;49.678;8.388;2023-02-26T03:37:11;2.10;99.90
6865;DHT22;3471;49.678;8.388;2023-02-26T03:39:45;2.10;99.90
6865;DHT22;3471;49.678;8.388;2023-02-26T03:42:27;2.00;99.90
6865;DHT22;3471;49.678;8.388;2023-02-26T03:45:06;2.00;99.90
6865;DHT22;3471;49.678;8.388;2023-02-26T03:47:34;1.90;99.90
6865;DHT22;3471;49.678;8.388;2023-02-26T03:50:04;1.90;99.90
6865;DHT22;3471;49.678;8.388;2023-02-26T03:52:34;1.90;99.90
6865;DHT22;3471;49.678;8.388;2023-02-26T03:55:10;1.80;99.90
6865;DHT22;3471;49.678;8.388;2023-02-26T03:57:37;1.80;99.90
6865;DHT22;3471;49.678;8.388;2023-02-26T04:00:05;1.80;99.90
6865;DHT22;3471;49.678;8.388;2023-02-26T04:02:37;1.90;99.90
6865;DHT22;3471;49.678;8.388;2023-02-26T04:05:16;1.80;99.90
6865;DHT22;3471;49.678;8.388;2023-02-26T04:07:43;1.80;99.90
6865;DHT22;3471;49.678;8.388;2023-02-26T04:10:10;1.80;99.90
6865;DHT22;3471;49.678;8.388;2023-02-26T04:12:38;1.70;99.90
6865;DHT22;3471;49.678;8.388;2023-02-26T04:15:04;1.70;99.90
6865;DHT22;3471;49.678;8.388;2023-02-26T04:17:30;1.70;99.90
6865;DHT22;3471;49.678;8.388;2023-02-26T04:19:55;1.70;99.90
6865;DHT22;3471;49.678;8.388;2023-02-26T04:22:21;1.60;99.90
6865;DHT22;3471;49.678;8.388;2023-02-26T04:24:46;1.60;99.90
6865;DHT22;3471;49.678;8.388;2023-02-26T04:27:12;1.60;99.90
6865;DHT22;3471;49.678;8.388;2023-02-26T04:29:37;1.60;99.90
6865;DHT22;3471;49.678;8.388;2023-02-26T04:32:04;1.60;99.90
6865;DHT22;3471;49.678;8.388;2023-02-26T04:34:29;1.60;99.90
6865;DHT22;3471;49.678;8.388;2023-02-26T04:36:55;1.60;99.90
6865;DHT22;3471;49.678;8.388;2023-02-26T04:39:20;1.50;99.90
6865;DHT22;3471;49.678;8.388;2023-02-26T04:41:46;1.60;99.90
6865;DHT22;3471;49.678;8.388;2023-02-26T04:44:11;1.60;99.90
6865;DHT22;3471;49.678;8.388;2023-02-26T04:46:37;1.50;99.90
6865;DHT22;3471;49.678;8.388;2023-02-26T04:49:03;1.50;99.90
6865;DHT22;3471;49.678;8.388;2023-02-26T04:51:29;1.50;99.90
6865;DHT22;3471;49.678;8.388;2023-02-26T04:53:55;1.50;99.90
6865;DHT22;3471;49.678;8.388;2023-02-26T04:56:20;1.50;99.90
6865;DHT22;3471;49.678;8.388;2023-02-26T04:58:46;1.50;99.90
6865;DHT22;3471;49.678;8.388;2023-02-26T05:01:11;1.40;99.90
6865;DHT22;3471;49.678;8.388;2023-02-26T05:03:38;1.40;99.90
6865;DHT22;3471;49.678;8.388;2023-02-26T05:06:04;1.30;99.90
6865;DHT22;3471;49.678;8.388;2023-02-26T05:08:29;1.30;99.90
6865;DHT22;3471;49.678;8.388;2023-02-26T05:10:55;1.30;99.90
6865;DHT22;3471;49.678;8.388;2023-02-26T05:13:20;1.30;99.90
6865;DHT22;3471;49.678;8.388;2023-02-26T05:15:46;1.30;99.90
6865;DHT22;3471;49.678;8.388;2023-02-26T05:18:11;1.30;99.90
6865;DHT22;3471;49.678;8.388;2023-02-26T05:20:37;1.30;99.90
6865;DHT22;3471;49.678;8.388;2023-02-26T05:23:03;1.30;99.90
6865;DHT22;3471;49.678;8.388;2023-02-26T05:25:29;1.30;99.90
6865;DHT22;3471;49.678;8.388;2023-02-26T05:27:54;1.30;99.90
6865;DHT22;3471;49.678;8.388;2023-02-26T05:30:20;1.30;99.90
6865;DHT22;3471;49.678;8.388;2023-02-26T05:32:46;1.40;99.90
6865;DHT22;3471;49.678;8.388;2023-02-26T05:35:12;1.40;99.90
6865;DHT22;3471;49.678;8.388;2023-02-26T05:37:38;1.50;99.90
6865;DHT22;3471;49.678;8.388;2023-02-26T05:40:06;1.50;99.90
6865;DHT22;3471;49.678;8.388;2023-02-26T05:42:35;1.60;99.90
6865;DHT22;3471;49.678;8.388;2023-02-26T05:45:01;1.60;99.90
6865;DHT22;3471;49.678;8.388;2023-02-26T05:47:26;1.60;99.90
6865;DHT22;3471;49.678;8.388;2023-02-26T05:49:52;1.70;99.90
6865;DHT22;3471;49.678;8.388;2023-02-26T05:52:18;1.70;99.90
6865;DHT22;3471;49.678;8.388;2023-02-26T05:54:43;1.60;99.90
6865;DHT22;3471;49.678;8.388;2023-02-26T05:57:09;1.60;99.90
6865;DHT22;3471;49.678;8.388;2023-02-26T05:59:34;1.60;99.90
6865;DHT22;3471;49.678;8.388;2023-02-26T06:02:00;1.60;99.90
6865;DHT22;3471;49.678;8.388;2023-02-26T06:04:26;1.50;99.90
6865;DHT22;3471;49.678;8.388;2023-02-26T06:06:51;1.50;99.90
6865;DHT22;3471;49.678;8.388;2023-02-26T06:09:17;1.50;99.90
6865;DHT22;3471;49.678;8.388;2023-02-26T06:11:42;1.50;99.90
6865;DHT22;3471;49.678;8.388;2023-02-26T06:14:08;1.40;99.90
6865;DHT22;3471;49.678;8.388;2023-02-26T06:16:33;1.40;99.90
6865;DHT22;3471;49.678;8.388;2023-02-26T06:19:00;1.40;99.90
6865;DHT22;3471;49.678;8.388;2023-02-26T06:21:26;1.40;99.90
6865;DHT22;3471;49.678;8.388;2023-02-26T06:23:51;1.30;99.90
6865;DHT22;3471;49.678;8.388;2023-02-26T06:26:17;1.30;99.90
6865;DHT22;3471;49.678;8.388;2023-02-26T06:28:43;1.30;99.90
6865;DHT22;3471;49.678;8.388;2023-02-26T06:31:09;1.30;99.90
6865;DHT22;3471;49.678;8.388;2023-02-26T06:33:35;1.30;99.90
6865;DHT22;3471;49.678;8.388;2023-02-26T06:36:00;1.20;99.90
6865;DHT22;3471;49.678;8.388;2023-02-26T06:38:27;1.20;99.90
6865;DHT22;3471;49.678;8.388;2023-02-26T06:40:53;1.30;99.90
6865;DHT22;3471;49.678;8.388;2023-02-26T06:43:18;1.30;99.90
6865;DHT22;3471;49.678;8.388;2023-02-26T06:45:44;1.30;99.90
6865;DHT22;3471;49.678;8.388;2023-02-26T06:48:10;1.30;99.90
6865;DHT22;3471;49.678;8.388;2023-02-26T06:50:36;1.30;99.90
6865;DHT22;3471;49.678;8.388;2023-02-26T06:53:02;1.40;99.90
6865;DHT22;3471;49.678;8.388;2023-02-26T06:55:27;1.40;99.90
6865;DHT22;3471;49.678;8.388;2023-02-26T06:57:53;1.50;99.90
6865;DHT22;3471;49.678;8.388;2023-02-26T07:00:20;1.50;99.90
6865;DHT22;3471;49.678;8.388;2023-02-26T07:02:45;1.60;99.90
6865;DHT22;3471;49.678;8.388;2023-02-26T07:05:11;1.70;99.90
6865;DHT22;3471;49.678;8.388;2023-02-26T07:07:37;1.70;99.90
6865;DHT22;3471;49.678;8.388;2023-02-26T07:10:03;1.80;99.90
6865;DHT22;3471;49.678;8.388;2023-02-26T07:12:29;1.90;99.90
6865;DHT22;3471;49.678;8.388;2023-02-26T07:14:54;1.90;99.90
6865;DHT22;3471;49.678;8.388;2023-02-26T07:17:20;2.00;99.90
6865;DHT22;3471;49.678;8.388;2023-02-26T07:19:49;2.00;99.90
6865;DHT22;3471;49.678;8.388;2023-02-26T07:22:16;1.90;99.90
6865;DHT22;3471;49.678;8.388;2023-02-26T07:24:42;1.90;99.90
6865;DHT22;3471;49.678;8.388;2023-02-26T07:27:08;1.90;99.90
6865;DHT22;3471;49.678;8.388;2023-02-26T07:29:35;1.90;99.90
6865;DHT22;3471;49.678;8.388;2023-02-26T07:32:01;1.90;99.90
6865;DHT22;3471;49.678;8.388;2023-02-26T07:34:27;1.90;99.90
6865;DHT22;3471;49.678;8.388;2023-02-26T07:36:52;2.10;99.90
6865;DHT22;3471;49.678;8.388;2023-02-26T07:39:18;2.20;99.90
6865;DHT22;3471;49.678;8.388;2023-02-26T07:41:43;2.40;99.90
6865;DHT22;3471;49.678;8.388;2023-02-26T07:44:09;2.40;99.90
6865;DHT22;3471;49.678;8.388;2023-02-26T07:46:35;2.50;99.90
6865;DHT22;3471;49.678;8.388;2023-02-26T07:49:00;2.50;99.90
6865;DHT22;3471;49.678;8.388;2023-02-26T07:51:26;2.50;99.90
6865;DHT22;3471;49.678;8.388;2023-02-26T07:53:51;2.50;99.90
6865;DHT22;3471;49.678;8.388;2023-02-26T07:56:17;2.50;99.90
6865;DHT22;3471;49.678;8.388;2023-02-26T07:58:42;2.50;99.90
6865;DHT22;3471;49.678;8.388;2023-02-26T08:01:08;2.50;99.90
6865;DHT22;3471;49.678;8.388;2023-02-26T08:03:34;2.50;99.90
6865;DHT22;3471;49.678;8.388;2023-02-26T08:05:59;2.60;99.90
6865;DHT22;3471;49.678;8.388;2023-02-26T08:08:26;2.60;99.90
6865;DHT22;3471;49.678;8.388;2023-02-26T08:10:51;2.60;99.90
6865;DHT22;3471;49.678;8.388;2023-02-26T08:13:18;2.70;99.90
6865;DHT22;3471;49.678;8.388;2023-02-26T08:15:43;2.70;99.90
6865;DHT22;3471;49.678;8.388;2023-02-26T08:18:10;2.70;99.90
6865;DHT22;3471;49.678;8.388;2023-02-26T08:20:36;2.80;99.90
6865;DHT22;3471;49.678;8.388;2023-02-26T08:23:01;2.80;99.90
6865;DHT22;3471;49.678;8.388;2023-02-26T08:25:27;2.90;99.90
6865;DHT22;3471;49.678;8.388;2023-02-26T08:27:53;3.00;99.90
6865;DHT22;3471;49.678;8.388;2023-02-26T08:30:18;3.10;99.90
6865;DHT22;3471;49.678;8.388;2023-02-26T08:32:44;3.10;99.90
6865;DHT22;3471;49.678;8.388;2023-02-26T08:35:10;3.20;99.90
6865;DHT22;3471;49.678;8.388;2023-02-26T08:37:36;3.30;99.90
6865;DHT22;3471;49.678;8.388;2023-02-26T08:40:04;3.30;99.90
6865;DHT22;3471;49.678;8.388;2023-02-26T08:42:30;3.40;99.90
6865;DHT22;3471;49.678;8.388;2023-02-26T08:44:56;3.50;99.90
6865;DHT22;3471;49.678;8.388;2023-02-26T08:47:21;3.50;99.90
6865;DHT22;3471;49.678;8.388;2023-02-26T08:49:47;3.60;99.90
6865;DHT22;3471;49.678;8.388;2023-02-26T08:52:12;3.70;99.90
6865;DHT22;3471;49.678;8.388;2023-02-26T08:54:38;3.70;99.90
6865;DHT22;3471;49.678;8.388;2023-02-26T08:57:04;3.70;99.90
6865;DHT22;3471;49.678;8.388;2023-02-26T08:59:29;3.70;99.90
6865;DHT22;3471;49.678;8.388;2023-02-26T09:01:55;3.80;99.90
6865;DHT22;3471;49.678;8.388;2023-02-26T09:04:20;3.90;99.90
6865;DHT22;3471;49.678;8.388;2023-02-26T09:06:46;4.00;99.90
6865;DHT22;3471;49.678;8.388;2023-02-26T09:09:12;4.20;99.90
6865;DHT22;3471;49.678;8.388;2023-02-26T09:11:38;4.20;99.90
6865;DHT22;3471;49.678;8.388;2023-02-26T09:14:05;4.20;99.90
6865;DHT22;3471;49.678;8.388;2023-02-26T09:16:31;4.20;99.90
6865;DHT22;3471;49.678;8.388;2023-02-26T09:18:59;4.20;99.90
6865;DHT22;3471;49.678;8.388;2023-02-26T09:21:25;4.20;99.90
6865;DHT22;3471;49.678;8.388;2023-02-26T09:23:50;4.40;99.90
6865;DHT22;3471;49.678;8.388;2023-02-26T09:26:16;4.50;99.90
6865;DHT22;3471;49.678;8.388;2023-02-26T09:28:41;4.50;99.90
6865;DHT22;3471;49.678;8.388;2023-02-26T09:31:07;4.60;99.90
6865;DHT22;3471;49.678;8.388;2023-02-26T09:33:33;4.70;99.90
6865;DHT22;3471;49.678;8.388;2023-02-26T09:35:59;4.90;99.90
6865;DHT22;3471;49.678;8.388;2023-02-26T09:38:24;5.00;99.90
6865;DHT22;3471;49.678;8.388;2023-02-26T09:40:52;5.10;99.90
6865;DHT22;3471;49.678;8.388;2023-02-26T09:51:38;5.60;99.90
6865;DHT22;3471;49.678;8.388;2023-02-26T09:54:15;5.50;99.90
6865;DHT22;3471;49.678;8.388;2023-02-26T09:56:42;5.50;99.90
6865;DHT22;3471;49.678;8.388;2023-02-26T09:59:09;5.40;99.90
6865;DHT22;3471;49.678;8.388;2023-02-26T10:06:58;5.40;99.90
6865;DHT22;3471;49.678;8.388;2023-02-26T10:09:38;5.50;99.90
6865;DHT22;3471;49.678;8.388;2023-02-26T10:12:17;5.60;99.90
6865;DHT22;3471;49.678;8.388;2023-02-26T10:14:47;5.80;99.90
6865;DHT22;3471;49.678;8.388;2023-02-26T10:17:45;5.90;99.90
6865;DHT22;3471;49.678;8.388;2023-02-26T10:20:46;6.00;99.90
6865;DHT22;3471;49.678;8.388;2023-02-26T10:26:04;6.30;99.90
6865;DHT22;3471;49.678;8.388;2023-02-26T10:34:16;6.20;99.90
6865;DHT22;3471;49.678;8.388;2023-02-26T10:39:31;6.00;99.90
6865;DHT22;3471;49.678;8.388;2023-02-26T10:42:01;5.90;99.90
6865;DHT22;3471;49.678;8.388;2023-02-26T10:47:18;5.80;99.90
6865;DHT22;3471;49.678;8.388;2023-02-26T10:52:31;5.70;99.90
6865;DHT22;3471;49.678;8.388;2023-02-26T10:57:33;5.50;99.90
6865;DHT22;3471;49.678;8.388;2023-02-26T11:00:00;5.50;99.90
6865;DHT22;3471;49.678;8.388;2023-02-26T11:02:44;5.60;99.90
6865;DHT22;3471;49.678;8.388;2023-02-26T11:05:26;5.60;99.90
6865;DHT22;3471;49.678;8.388;2023-02-26T11:08:08;5.60;99.90
6865;DHT22;3471;49.678;8.388;2023-02-26T11:13:17;6.40;99.90
6865;DHT22;3471;49.678;8.388;2023-02-26T11:15:47;7.10;99.90
6865;DHT22;3471;49.678;8.388;2023-02-26T11:18:20;7.60;99.90
6865;DHT22;3471;49.678;8.388;2023-02-26T11:20:46;8.00;99.90
6865;DHT22;3471;49.678;8.388;2023-02-26T11:23:17;8.20;99.90
6865;DHT22;3471;49.678;8.388;2023-02-26T11:25:43;8.30;99.90
6865;DHT22;3471;49.678;8.388;2023-02-26T11:28:20;8.50;99.90
6865;DHT22;3471;49.678;8.388;2023-02-26T11:30:46;8.50;98.50
6865;DHT22;3471;49.678;8.388;2023-02-26T11:36:10;8.30;99.60
6865;DHT22;3471;49.678;8.388;2023-02-26T11:38:37;8.20;98.70
6865;DHT22;3471;49.678;8.388;2023-02-26T11:41:04;8.10;98.40
6865;DHT22;3471;49.678;8.388;2023-02-26T11:43:41;7.90;98.00
6865;DHT22;3471;49.678;8.388;2023-02-26T11:46:08;7.70;98.20
6865;DHT22;3471;49.678;8.388;2023-02-26T11:48:45;7.50;97.70
6865;DHT22;3471;49.678;8.388;2023-02-26T11:51:13;7.20;98.10
6865;DHT22;3471;49.678;8.388;2023-02-26T11:56:12;7.10;99.90
6865;DHT22;3471;49.678;8.388;2023-02-26T11:58:40;7.30;99.30
6865;DHT22;3471;49.678;8.388;2023-02-26T12:01:09;7.60;98.90
6865;DHT22;3471;49.678;8.388;2023-02-26T12:03:37;7.80;98.60
6865;DHT22;3471;49.678;8.388;2023-02-26T12:06:13;8.00;98.60
6865;DHT22;3471;49.678;8.388;2023-02-26T12:08:40;8.20;98.80
6865;DHT22;3471;49.678;8.388;2023-02-26T12:11:47;8.50;97.80
6865;DHT22;3471;49.678;8.388;2023-02-26T12:17:34;8.60;96.00
6865;DHT22;3471;49.678;8.388;2023-02-26T12:31:18;9.20;97.80
6865;DHT22;3471;49.678;8.388;2023-02-26T12:34:12;9.40;97.40
6865;DHT22;3471;49.678;8.388;2023-02-26T12:39:35;9.60;94.10
6865;DHT22;3471;49.678;8.388;2023-02-26T12:42:12;9.50;95.90
6865;DHT22;3471;49.678;8.388;2023-02-26T12:47:54;9.40;98.90
6865;DHT22;3471;49.678;8.388;2023-02-26T12:51:33;10.40;98.80
6865;DHT22;3471;49.678;8.388;2023-02-26T13:14:31;10.80;94.70
6865;DHT22;3471;49.678;8.388;2023-02-26T13:19:36;11.30;92.50
6865;DHT22;3471;49.678;8.388;2023-02-26T13:22:14;11.50;91.80
6865;DHT22;3471;49.678;8.388;2023-02-26T13:25:15;11.80;91.80
6865;DHT22;3471;49.678;8.388;2023-02-26T13:27:42;12.10;93.50
6865;DHT22;3471;49.678;8.388;2023-02-26T13:30:17;12.80;93.60
6865;DHT22;3471;49.678;8.388;2023-02-26T13:32:44;13.10;90.00
6865;DHT22;3471;49.678;8.388;2023-02-26T13:37:56;12.50;92.00
6865;DHT22;3471;49.678;8.388;2023-02-26T13:49:18;11.40;88.60
6865;DHT22;3471;49.678;8.388;2023-02-26T13:51:48;10.90;89.30
6865;DHT22;3471;49.678;8.388;2023-02-26T14:11:59;7.60;92.10
6865;DHT22;3471;49.678;8.388;2023-02-26T14:14:40;7.30;92.90
6865;DHT22;3471;49.678;8.388;2023-02-26T14:20:06;6.80;94.70
6865;DHT22;3471;49.678;8.388;2023-02-26T14:22:35;6.60;94.10
6865;DHT22;3471;49.678;8.388;2023-02-26T14:27:45;6.30;95.20
6865;DHT22;3471;49.678;8.388;2023-02-26T14:37:56;6.10;94.00
6865;DHT22;3471;49.678;8.388;2023-02-26T14:40:23;6.10;95.30
6865;DHT22;3471;49.678;8.388;2023-02-26T14:43:15;6.00;96.20
6865;DHT22;3471;49.678;8.388;2023-02-26T14:45:43;6.00;95.60
6865;DHT22;3471;49.678;8.388;2023-02-26T14:48:16;6.00;96.10
6865;DHT22;3471;49.678;8.388;2023-02-26T14:50:58;5.90;97.00
6865;DHT22;3471;49.678;8.388;2023-02-26T14:53:45;5.90;95.70
6865;DHT22;3471;49.678;8.388;2023-02-26T15:01:42;5.70;96.70
6865;DHT22;3471;49.678;8.388;2023-02-26T15:23:36;8.00;95.00
6865;DHT22;3471;49.678;8.388;2023-02-26T15:26:04;9.40;95.90
6865;DHT22;3471;49.678;8.388;2023-02-26T15:28:33;10.30;92.90
6865;DHT22;3471;49.678;8.388;2023-02-26T15:31:01;10.60;92.20
6865;DHT22;3471;49.678;8.388;2023-02-26T15:33:28;10.40;91.90
6865;DHT22;3471;49.678;8.388;2023-02-26T15:35:55;10.10;90.30
6865;DHT22;3471;49.678;8.388;2023-02-26T15:38:22;9.70;92.50
6865;DHT22;3471;49.678;8.388;2023-02-26T15:40:50;9.30;91.50
6865;DHT22;3471;49.678;8.388;2023-02-26T15:43:21;8.90;91.20
6865;DHT22;3471;49.678;8.388;2023-02-26T15:45:48;8.50;91.20
6865;DHT22;3471;49.678;8.388;2023-02-26T15:48:34;8.00;91.90
6865;DHT22;3471;49.678;8.388;2023-02-26T15:51:04;7.70;93.50
6865;DHT22;3471;49.678;8.388;2023-02-26T15:56:02;7.20;93.20
6865;DHT22;3471;49.678;8.388;2023-02-26T15:58:51;7.00;94.20
6865;DHT22;3471;49.678;8.388;2023-02-26T16:01:20;6.80;93.20
6865;DHT22;3471;49.678;8.388;2023-02-26T16:03:46;6.70;92.60
6865;DHT22;3471;49.678;8.388;2023-02-26T16:08:52;6.30;94.00
6865;DHT22;3471;49.678;8.388;2023-02-26T16:11:20;6.30;93.70
6865;DHT22;3471;49.678;8.388;2023-02-26T16:13:49;6.20;92.70
6865;DHT22;3471;49.678;8.388;2023-02-26T16:16:23;6.10;93.50
6865;DHT22;3471;49.678;8.388;2023-02-26T16:18:51;6.00;94.50
6865;DHT22;3471;49.678;8.388;2023-02-26T16:21:34;6.00;93.00
6865;DHT22;3471;49.678;8.388;2023-02-26T16:24:01;5.90;93.50
6865;DHT22;3471;49.678;8.388;2023-02-26T16:26:32;5.80;92.90
6865;DHT22;3471;49.678;8.388;2023-02-26T16:29:14;5.60;95.10
6865;DHT22;3471;49.678;8.388;2023-02-26T16:31:40;5.50;94.70
6865;DHT22;3471;49.678;8.388;2023-02-26T16:36:52;5.30;94.50
6865;DHT22;3471;49.678;8.388;2023-02-26T16:39:29;5.30;94.50
6865;DHT22;3471;49.678;8.388;2023-02-26T16:42:31;5.20;94.50
6865;DHT22;3471;49.678;8.388;2023-02-26T16:45:23;5.20;94.40
6865;DHT22;3471;49.678;8.388;2023-02-26T16:47:54;5.10;96.00
6865;DHT22;3471;49.678;8.388;2023-02-26T16:50:25;5.00;95.40
6865;DHT22;3471;49.678;8.388;2023-02-26T16:53:07;5.00;94.50
6865;DHT22;3471;49.678;8.388;2023-02-26T16:55:36;5.00;94.20
6865;DHT22;3471;49.678;8.388;2023-02-26T16:58:09;4.90;93.60
6865;DHT22;3471;49.678;8.388;2023-02-26T17:00:37;4.90;93.70
6865;DHT22;3471;49.678;8.388;2023-02-26T17:03:10;4.80;94.40
6865;DHT22;3471;49.678;8.388;2023-02-26T17:05:40;4.80;94.90
6865;DHT22;3471;49.678;8.388;2023-02-26T17:10:47;4.70;96.10
6865;DHT22;3471;49.678;8.388;2023-02-26T17:13:15;4.70;95.20
6865;DHT22;3471;49.678;8.388;2023-02-26T17:15:41;4.70;94.60
6865;DHT22;3471;49.678;8.388;2023-02-26T17:18:08;4.70;95.10
6865;DHT22;3471;49.678;8.388;2023-02-26T17:20:34;4.70;94.00
6865;DHT22;3471;49.678;8.388;2023-02-26T17:23:01;4.70;94.30
6865;DHT22;3471;49.678;8.388;2023-02-26T17:25:33;4.70;94.00
6865;DHT22;3471;49.678;8.388;2023-02-26T17:28:00;4.60;95.10
6865;DHT22;3471;49.678;8.388;2023-02-26T17:30:26;4.60;94.30
6865;DHT22;3471;49.678;8.388;2023-02-26T17:32:56;4.50;95.30
6865;DHT22;3471;49.678;8.388;2023-02-26T17:35:22;4.50;95.90
6865;DHT22;3471;49.678;8.388;2023-02-26T17:37:48;4.50;94.90
6865;DHT22;3471;49.678;8.388;2023-02-26T17:40:19;4.40;95.60
6865;DHT22;3471;49.678;8.388;2023-02-26T17:42:45;4.40;97.70
6865;DHT22;3471;49.678;8.388;2023-02-26T17:45:11;4.40;94.90
6865;DHT22;3471;49.678;8.388;2023-02-26T17:47:37;4.40;95.30
6865;DHT22;3471;49.678;8.388;2023-02-26T17:50:19;4.40;95.10
6865;DHT22;3471;49.678;8.388;2023-02-26T17:52:45;4.40;95.60
6865;DHT22;3471;49.678;8.388;2023-02-26T17:55:10;4.40;95.20
6865;DHT22;3471;49.678;8.388;2023-02-26T17:57:36;4.40;98.00
6865;DHT22;3471;49.678;8.388;2023-02-26T18:00:02;4.40;97.40
6865;DHT22;3471;49.678;8.388;2023-02-26T18:02:29;4.40;99.10
6865;DHT22;3471;49.678;8.388;2023-02-26T18:04:55;4.40;96.00
6865;DHT22;3471;49.678;8.388;2023-02-26T18:07:22;4.40;95.30
6865;DHT22;3471;49.678;8.388;2023-02-26T18:09:48;4.30;96.30
6865;DHT22;3471;49.678;8.388;2023-02-26T18:12:19;4.30;97.50
6865;DHT22;3471;49.678;8.388;2023-02-26T18:14:46;4.30;97.50
6865;DHT22;3471;49.678;8.388;2023-02-26T18:17:13;4.30;97.10
6865;DHT22;3471;49.678;8.388;2023-02-26T18:19:40;4.20;96.50
6865;DHT22;3471;49.678;8.388;2023-02-26T18:22:13;4.20;97.60
6865;DHT22;3471;49.678;8.388;2023-02-26T18:24:39;4.20;96.70
6865;DHT22;3471;49.678;8.388;2023-02-26T18:27:06;4.20;95.60
6865;DHT22;3471;49.678;8.388;2023-02-26T18:29:35;4.10;96.80
6865;DHT22;3471;49.678;8.388;2023-02-26T18:32:01;4.10;96.80
6865;DHT22;3471;49.678;8.388;2023-02-26T18:34:27;4.10;96.70
6865;DHT22;3471;49.678;8.388;2023-02-26T18:36:53;4.10;96.90
6865;DHT22;3471;49.678;8.388;2023-02-26T18:39:19;4.10;97.00
6865;DHT22;3471;49.678;8.388;2023-02-26T18:41:45;4.10;98.00
6865;DHT22;3471;49.678;8.388;2023-02-26T18:44:11;4.10;97.30
6865;DHT22;3471;49.678;8.388;2023-02-26T18:46:37;4.20;97.60
6865;DHT22;3471;49.678;8.388;2023-02-26T18:49:05;4.10;96.30
6865;DHT22;3471;49.678;8.388;2023-02-26T18:51:31;4.10;96.10
6865;DHT22;3471;49.678;8.388;2023-02-26T18:53:57;4.10;97.70
6865;DHT22;3471;49.678;8.388;2023-02-26T18:56:23;4.10;97.70
6865;DHT22;3471;49.678;8.388;2023-02-26T18:58:48;4.10;98.50
6865;DHT22;3471;49.678;8.388;2023-02-26T19:01:14;4.20;99.90
6865;DHT22;3471;49.678;8.388;2023-02-26T19:03:39;4.20;98.30
6865;DHT22;3471;49.678;8.388;2023-02-26T19:06:06;4.20;98.00
6865;DHT22;3471;49.678;8.388;2023-02-26T19:08:34;4.20;97.40
6865;DHT22;3471;49.678;8.388;2023-02-26T19:11:00;4.20;99.70
6865;DHT22;3471;49.678;8.388;2023-02-26T19:13:26;4.10;98.70
6865;DHT22;3471;49.678;8.388;2023-02-26T19:15:52;4.10;99.80
6865;DHT22;3471;49.678;8.388;2023-02-26T19:18:18;4.10;98.30
6865;DHT22;3471;49.678;8.388;2023-02-26T19:20:44;4.10;98.20
6865;DHT22;3471;49.678;8.388;2023-02-26T19:23:09;4.10;98.70
6865;DHT22;3471;49.678;8.388;2023-02-26T19:25:36;4.00;98.30
6865;DHT22;3471;49.678;8.388;2023-02-26T19:28:02;4.00;99.90
6865;DHT22;3471;49.678;8.388;2023-02-26T19:30:28;3.90;98.80
6865;DHT22;3471;49.678;8.388;2023-02-26T19:32:53;3.90;99.90
6865;DHT22;3471;49.678;8.388;2023-02-26T19:35:20;3.80;99.90
6865;DHT22;3471;49.678;8.388;2023-02-26T19:37:46;3.80;99.90
6865;DHT22;3471;49.678;8.388;2023-02-26T19:40:13;3.80;99.80
6865;DHT22;3471;49.678;8.388;2023-02-26T19:42:44;3.80;99.90
6865;DHT22;3471;49.678;8.388;2023-02-26T19:45:11;3.80;99.90